createdAt,value
2023-01-09T00:00:09.615Z,0
2023-01-09T00:01:10.656Z,0
2023-01-09T00:02:11.397Z,0
2023-01-09T00:03:11.325Z,0
2023-01-09T00:04:12.455Z,0
2023-01-09T00:05:13.116Z,0
2023-01-09T00:06:13.609Z,0
2023-01-09T00:07:13.531Z,0
2023-01-09T00:08:13.883Z,0
2023-01-09T00:09:15.515Z,0
2023-01-09T00:10:15.484Z,0
2023-01-09T00:11:16.133Z,0
2023-01-09T00:12:17.050Z,0
2023-01-09T00:13:17.990Z,0
2023-01-09T00:14:21.676Z,0
2023-01-09T00:15:19.657Z,0
2023-01-09T00:16:21.020Z,0
2023-01-09T00:17:20.810Z,0
2023-01-09T00:18:22.302Z,0
2023-01-09T00:19:21.996Z,0
2023-01-09T00:20:23.234Z,0
2023-01-09T00:21:23.711Z,0
2023-01-09T00:22:23.638Z,0
2023-01-09T00:23:24.585Z,0
2023-01-09T00:24:24.328Z,0
2023-01-09T00:25:25.284Z,0
2023-01-09T00:26:25.189Z,0
2023-01-09T00:27:26.137Z,0
2023-01-09T00:28:26.371Z,0
2023-01-09T00:29:26.419Z,0
2023-01-09T00:30:27.099Z,0
2023-01-09T00:31:28.150Z,0
2023-01-09T00:32:28.086Z,0
2023-01-09T00:33:29.294Z,0
2023-01-09T00:34:29.791Z,0
2023-01-09T00:35:29.442Z,0
2023-01-09T00:36:30.683Z,0
2023-01-09T00:37:31.594Z,0
2023-01-09T00:38:32.238Z,0
2023-01-09T00:39:33.258Z,0
2023-01-09T00:40:34.193Z,0
2023-01-09T00:41:35.124Z,0
2023-01-09T00:42:36.049Z,0
2023-01-09T00:43:35.993Z,0
2023-01-09T00:44:37.203Z,0
2023-01-09T00:45:37.497Z,0
2023-01-09T00:46:38.704Z,0
2023-01-09T00:47:39.217Z,0
2023-01-09T00:48:39.151Z,0
2023-01-09T00:49:40.482Z,0
2023-01-09T00:50:40.762Z,0
2023-01-09T00:51:42.004Z,0
2023-01-09T00:52:42.079Z,0
2023-01-09T00:53:43.283Z,0
2023-01-09T00:54:43.349Z,0
2023-01-09T00:55:44.276Z,0
2023-01-09T00:56:44.764Z,0
2023-01-09T00:57:44.977Z,0
2023-01-09T00:58:45.990Z,0
2023-01-09T00:59:45.698Z,0
2023-01-09T01:00:47.346Z,0
2023-01-09T01:01:48.794Z,0
2023-01-09T01:02:48.213Z,0
2023-01-09T01:03:48.757Z,0
2023-01-09T01:04:48.687Z,0
2023-01-09T01:05:49.824Z,0
2023-01-09T01:06:50.333Z,0
2023-01-09T01:07:50.057Z,0
2023-01-09T01:08:51.299Z,0
2023-01-09T01:09:51.935Z,0
2023-01-09T01:10:51.891Z,0
2023-01-09T01:11:52.824Z,0
2023-01-09T01:12:53.202Z,0
2023-01-09T01:13:54.142Z,0
2023-01-09T01:14:54.397Z,0
2023-01-09T01:15:55.323Z,0
2023-01-09T01:16:56.931Z,0
2023-01-09T01:17:57.096Z,0
2023-01-09T01:18:58.370Z,0
2023-01-09T01:19:58.636Z,0
2023-01-09T01:20:59.150Z,0
2023-01-09T01:21:59.352Z,0
2023-01-09T01:22:59.850Z,0
2023-01-09T01:24:00.053Z,0
2023-01-09T01:25:00.277Z,0
2023-01-09T01:26:00.783Z,0
2023-01-09T01:27:01.290Z,0
2023-01-09T01:28:01.504Z,0
2023-01-09T01:29:01.747Z,0
2023-01-09T01:30:02.808Z,0
2023-01-09T01:31:03.242Z,0
2023-01-09T01:32:03.968Z,0
2023-01-09T01:33:04.878Z,0
2023-01-09T01:34:05.091Z,0
2023-01-09T01:35:05.304Z,0
2023-01-09T01:36:06.244Z,0
2023-01-09T01:37:06.216Z,0
2023-01-09T01:38:07.116Z,0
2023-01-09T01:39:08.643Z,0
2023-01-09T01:40:09.656Z,0
2023-01-09T01:41:09.587Z,0
2023-01-09T01:42:10.518Z,0
2023-01-09T01:43:11.735Z,0
2023-01-09T01:44:12.383Z,0
2023-01-09T01:45:12.591Z,0
2023-01-09T01:46:13.681Z,0
2023-01-09T01:47:13.779Z,0
2023-01-09T01:48:15.037Z,0
2023-01-09T01:49:15.231Z,0
2023-01-09T01:50:15.270Z,0
2023-01-09T01:51:16.510Z,0
2023-01-09T01:52:16.704Z,0
2023-01-09T01:53:16.896Z,0
2023-01-09T01:54:17.142Z,0
2023-01-09T01:55:17.392Z,0
2023-01-09T01:56:18.323Z,0
2023-01-09T01:57:19.265Z,0
2023-01-09T01:58:20.187Z,0
2023-01-09T01:59:20.574Z,0
2023-01-09T02:00:21.880Z,0
2023-01-09T02:01:22.061Z,0
2023-01-09T02:02:22.842Z,0
2023-01-09T02:03:22.797Z,0
2023-01-09T02:04:23.736Z,0
2023-01-09T02:05:24.216Z,0
2023-01-09T02:06:24.786Z,0
2023-01-09T02:07:24.690Z,0
2023-01-09T02:08:26.185Z,0
2023-01-09T02:09:26.490Z,0
2023-01-09T02:10:27.238Z,0
2023-01-09T02:11:27.477Z,0
2023-01-09T02:12:28.130Z,0
2023-01-09T02:13:28.757Z,0
2023-01-09T02:14:29.684Z,0
2023-01-09T02:15:30.634Z,0
2023-01-09T02:16:31.890Z,0
2023-01-09T02:17:32.423Z,0
2023-01-09T02:18:32.347Z,0
2023-01-09T02:19:32.884Z,0
2023-01-09T02:20:32.603Z,0
2023-01-09T02:21:34.122Z,0
2023-01-09T02:22:34.603Z,0
2023-01-09T02:23:34.808Z,0
2023-01-09T02:24:35.038Z,0
2023-01-09T02:25:35.277Z,0
2023-01-09T02:26:36.194Z,0
2023-01-09T02:27:37.101Z,0
2023-01-09T02:28:37.297Z,0
2023-01-09T02:29:38.548Z,0
2023-01-09T02:30:38.875Z,0
2023-01-09T02:31:39.407Z,0
2023-01-09T02:32:40.443Z,0
2023-01-09T02:33:40.969Z,0
2023-01-09T02:34:41.211Z,0
2023-01-09T02:35:41.710Z,0
2023-01-09T02:36:41.674Z,0
2023-01-09T02:37:42.622Z,0
2023-01-09T02:38:43.821Z,0
2023-01-09T02:39:44.040Z,0
2023-01-09T02:40:44.099Z,0
2023-01-09T02:41:44.456Z,0
2023-01-09T02:42:45.659Z,0
2023-01-09T02:43:46.569Z,0
2023-01-09T02:44:46.789Z,0
2023-01-09T02:45:47.874Z,0
2023-01-09T02:46:47.854Z,0
2023-01-09T02:47:48.130Z,0
2023-01-09T02:48:49.044Z,0
2023-01-09T02:49:49.244Z,0
2023-01-09T02:50:49.874Z,0
2023-01-09T02:51:49.823Z,0
2023-01-09T02:52:50.022Z,0
2023-01-09T02:53:50.651Z,0
2023-01-09T02:54:51.572Z,0
2023-01-09T02:55:51.797Z,0
2023-01-09T02:56:52.452Z,0
2023-01-09T02:57:52.365Z,0
2023-01-09T02:58:53.592Z,0
2023-01-09T02:59:54.825Z,0
2023-01-09T03:00:55.755Z,0
2023-01-09T03:01:56.493Z,0
2023-01-09T03:02:57.506Z,0
2023-01-09T03:03:57.473Z,0
2023-01-09T03:04:58.721Z,0
2023-01-09T03:05:59.640Z,0
2023-01-09T03:07:00.579Z,0
2023-01-09T03:08:00.798Z,0
2023-01-09T03:09:00.991Z,0
2023-01-09T03:10:02.220Z,0
2023-01-09T03:11:02.854Z,0
2023-01-09T03:12:03.079Z,0
2023-01-09T03:13:04.762Z,0
2023-01-09T03:14:03.975Z,0
2023-01-09T03:15:05.220Z,0
2023-01-09T03:16:05.250Z,0
2023-01-09T03:17:06.272Z,0
2023-01-09T03:18:06.852Z,0
2023-01-09T03:19:07.106Z,0
2023-01-09T03:20:08.036Z,0
2023-01-09T03:21:09.021Z,0
2023-01-09T03:22:10.255Z,0
2023-01-09T03:23:10.485Z,0
2023-01-09T03:24:10.682Z,0
2023-01-09T03:25:10.615Z,0
2023-01-09T03:26:11.832Z,0
2023-01-09T03:27:12.500Z,0
2023-01-09T03:28:13.452Z,0
2023-01-09T03:29:14.668Z,0
2023-01-09T03:30:14.899Z,0
2023-01-09T03:31:15.363Z,0
2023-01-09T03:32:15.326Z,0
2023-01-09T03:33:15.595Z,0
2023-01-09T03:34:16.541Z,0
2023-01-09T03:35:16.771Z,0
2023-01-09T03:36:17.974Z,0
2023-01-09T03:37:18.208Z,0
2023-01-09T03:38:19.237Z,0
2023-01-09T03:39:19.175Z,0
2023-01-09T03:40:19.960Z,0
2023-01-09T03:41:20.970Z,0
2023-01-09T03:42:20.892Z,0
2023-01-09T03:43:22.102Z,0
2023-01-09T03:44:22.740Z,0
2023-01-09T03:45:23.977Z,0
2023-01-09T03:46:24.645Z,0
2023-01-09T03:47:25.153Z,0
2023-01-09T03:48:25.683Z,0
2023-01-09T03:49:25.811Z,0
2023-01-09T03:50:25.763Z,0
2023-01-09T03:51:26.539Z,0
2023-01-09T03:52:26.487Z,0
2023-01-09T03:53:27.413Z,0
2023-01-09T03:54:27.604Z,0
2023-01-09T03:55:28.552Z,0
2023-01-09T03:56:29.234Z,0
2023-01-09T03:57:30.432Z,0
2023-01-09T03:58:30.452Z,0
2023-01-09T03:59:31.376Z,0
2023-01-09T04:00:32.930Z,0
2023-01-09T04:01:33.440Z,0
2023-01-09T04:02:33.649Z,0
2023-01-09T04:03:34.920Z,0
2023-01-09T04:04:35.239Z,0
2023-01-09T04:05:35.621Z,0
2023-01-09T04:06:36.458Z,0
2023-01-09T04:07:37.119Z,0
2023-01-09T04:08:38.335Z,0
2023-01-09T04:09:38.266Z,0
2023-01-09T04:10:39.476Z,0
2023-01-09T04:11:39.362Z,0
2023-01-09T04:12:40.853Z,0
2023-01-09T04:13:41.337Z,0
2023-01-09T04:14:41.259Z,0
2023-01-09T04:15:41.515Z,0
2023-01-09T04:16:42.303Z,0
2023-01-09T04:17:42.072Z,0
2023-01-09T04:18:43.608Z,0
2023-01-09T04:19:44.103Z,0
2023-01-09T04:20:45.019Z,0
2023-01-09T04:21:45.342Z,0
2023-01-09T04:22:46.283Z,0
2023-01-09T04:23:46.775Z,0
2023-01-09T04:24:46.740Z,0
2023-01-09T04:25:47.978Z,0
2023-01-09T04:26:47.655Z,0
2023-01-09T04:27:49.400Z,0
2023-01-09T04:28:49.632Z,0
2023-01-09T04:29:50.119Z,0
2023-01-09T04:30:50.067Z,0
2023-01-09T04:31:50.348Z,0
2023-01-09T04:32:51.738Z,0
2023-01-09T04:33:52.006Z,0
2023-01-09T04:34:52.204Z,0
2023-01-09T04:35:53.148Z,0
2023-01-09T04:36:53.805Z,0
2023-01-09T04:37:55.332Z,0
2023-01-09T04:38:54.958Z,0
2023-01-09T04:39:55.597Z,0
2023-01-09T04:40:56.845Z,0
2023-01-09T04:41:56.940Z,0
2023-01-09T04:42:57.444Z,0
2023-01-09T04:43:57.392Z,0
2023-01-09T04:44:58.620Z,0
2023-01-09T04:45:59.788Z,0
2023-01-09T04:47:00.462Z,0
2023-01-09T04:48:00.975Z,0
2023-01-09T04:49:01.522Z,0
2023-01-09T04:50:01.734Z,0
2023-01-09T04:51:02.648Z,0
2023-01-09T04:52:02.992Z,0
2023-01-09T04:53:04.266Z,0
2023-01-09T04:54:04.747Z,0
2023-01-09T04:55:05.244Z,0
2023-01-09T04:56:05.445Z,0
2023-01-09T04:57:05.948Z,0
2023-01-09T04:58:06.157Z,0
2023-01-09T04:59:06.093Z,0
2023-01-09T05:00:07.028Z,0
2023-01-09T05:01:07.640Z,0
2023-01-09T05:02:08.382Z,0
2023-01-09T05:03:07.556Z,0
2023-01-09T05:04:09.441Z,0
2023-01-09T05:05:11.486Z,0
2023-01-09T05:06:09.893Z,0
2023-01-09T05:07:10.077Z,0
2023-01-09T05:08:10.590Z,0
2023-01-09T05:09:09.941Z,0
2023-01-09T05:10:11.157Z,0
2023-01-09T05:11:11.084Z,0
2023-01-09T05:12:13.093Z,0
2023-01-09T05:13:13.010Z,0
2023-01-09T05:14:13.948Z,0
2023-01-09T05:15:14.882Z,0
2023-01-09T05:16:15.436Z,0
2023-01-09T05:17:16.543Z,0
2023-01-09T05:18:17.483Z,0
2023-01-09T05:19:18.022Z,0
2023-01-09T05:20:18.525Z,0
2023-01-09T05:21:18.725Z,0
2023-01-09T05:22:19.714Z,0
2023-01-09T05:23:19.653Z,0
2023-01-09T05:24:20.899Z,0
2023-01-09T05:25:21.100Z,0
2023-01-09T05:26:21.322Z,0
2023-01-09T05:27:21.586Z,0
2023-01-09T05:28:21.939Z,0
2023-01-09T05:29:23.250Z,0
2023-01-09T05:30:25.366Z,0
2023-01-09T05:31:24.816Z,0
2023-01-09T05:32:25.227Z,0
2023-01-09T05:33:25.424Z,0
2023-01-09T05:34:26.391Z,0
2023-01-09T05:35:26.388Z,0
2023-01-09T05:36:26.337Z,0
2023-01-09T05:37:27.548Z,0
2023-01-09T05:38:27.801Z,0
2023-01-09T05:39:27.996Z,0
2023-01-09T05:40:44.889Z,0
2023-01-09T05:41:29.951Z,0
2023-01-09T05:42:29.690Z,0
2023-01-09T05:43:30.367Z,0
2023-01-09T05:44:31.305Z,0
2023-01-09T05:45:32.424Z,0
2023-01-09T05:46:33.118Z,0
2023-01-09T05:47:33.331Z,0
2023-01-09T05:48:33.527Z,0
2023-01-09T05:49:33.877Z,0
2023-01-09T05:50:34.081Z,0
2023-01-09T05:51:34.722Z,0
2023-01-09T05:52:35.312Z,0
2023-01-09T05:53:34.971Z,0
2023-01-09T05:54:36.165Z,0
2023-01-09T05:55:36.744Z,0
2023-01-09T05:56:36.658Z,0
2023-01-09T05:57:38.200Z,0
2023-01-09T05:58:38.426Z,0
2023-01-09T05:59:39.077Z,0
2023-01-09T06:00:40.012Z,0
2023-01-09T06:01:41.525Z,0
2023-01-09T06:02:42.354Z,0
2023-01-09T06:03:41.162Z,0
2023-01-09T06:04:41.410Z,0
2023-01-09T06:05:41.618Z,0
2023-01-09T06:06:41.522Z,0
2023-01-09T06:07:43.015Z,0
2023-01-09T06:08:42.965Z,0
2023-01-09T06:09:44.107Z,0
2023-01-09T06:10:44.059Z,0
2023-01-09T06:11:45.010Z,0
2023-01-09T06:12:45.393Z,0
2023-01-09T06:13:45.644Z,0
2023-01-09T06:14:46.175Z,0
2023-01-09T06:15:46.659Z,0
2023-01-09T06:16:47.242Z,0
2023-01-09T06:17:47.458Z,0
2023-01-09T06:18:48.678Z,0
2023-01-09T06:19:49.208Z,0
2023-01-09T06:20:49.425Z,0
2023-01-09T06:21:49.625Z,0
2023-01-09T06:22:49.907Z,0
2023-01-09T06:23:50.157Z,0
2023-01-09T06:24:50.646Z,0
2023-01-09T06:25:50.845Z,0
2023-01-09T06:26:50.781Z,0
2023-01-09T06:27:51.323Z,0
2023-01-09T06:28:51.830Z,0
2023-01-09T06:29:52.071Z,0
2023-01-09T06:30:52.584Z,0
2023-01-09T06:31:53.699Z,0
2023-01-09T06:32:53.397Z,0
2023-01-09T06:33:54.317Z,0
2023-01-09T06:34:54.961Z,0
2023-01-09T06:35:55.190Z,0
2023-01-09T06:36:56.381Z,0
2023-01-09T06:37:56.867Z,0
2023-01-09T06:38:57.271Z,0
2023-01-09T06:39:57.197Z,0
2023-01-09T06:40:58.123Z,0
2023-01-09T06:41:59.910Z,0
2023-01-09T06:42:58.972Z,4
2023-01-09T06:43:59.895Z,4
2023-01-09T06:44:59.831Z,0
2023-01-09T06:46:00.672Z,0
2023-01-09T06:47:01.234Z,4
2023-01-09T06:48:01.359Z,4
2023-01-09T06:49:01.359Z,4
2023-01-09T06:50:02.028Z,4
2023-01-09T06:51:02.544Z,8
2023-01-09T06:52:03.035Z,4
2023-01-09T06:53:03.492Z,8
2023-01-09T06:54:03.899Z,8
2023-01-09T06:55:03.844Z,8
2023-01-09T06:56:04.052Z,12
2023-01-09T06:57:05.179Z,8
2023-01-09T06:58:05.419Z,12
2023-01-09T06:59:06.328Z,12
2023-01-09T07:00:06.621Z,16
2023-01-09T07:01:07.868Z,12
2023-01-09T07:02:07.525Z,16
2023-01-09T07:03:07.339Z,12
2023-01-09T07:04:08.424Z,16
2023-01-09T07:05:09.129Z,20
2023-01-09T07:06:08.758Z,16
2023-01-09T07:07:09.682Z,20
2023-01-09T07:08:09.621Z,20
2023-01-09T07:09:10.869Z,24
2023-01-09T07:10:11.380Z,20
2023-01-09T07:11:11.000Z,24
2023-01-09T07:12:12.215Z,24
2023-01-09T07:13:12.873Z,24
2023-01-09T07:14:13.514Z,24
2023-01-09T07:15:14.798Z,28
2023-01-09T07:16:15.052Z,28
2023-01-09T07:17:15.447Z,32
2023-01-09T07:18:15.938Z,32
2023-01-09T07:19:16.149Z,36
2023-01-09T07:20:16.116Z,36
2023-01-09T07:21:16.679Z,36
2023-01-09T07:22:16.358Z,36
2023-01-09T07:23:17.369Z,44
2023-01-09T07:24:17.700Z,44
2023-01-09T07:25:17.606Z,44
2023-01-09T07:26:18.834Z,48
2023-01-09T07:27:19.037Z,48
2023-01-09T07:28:19.548Z,52
2023-01-09T07:29:20.041Z,56
2023-01-09T07:30:20.749Z,60
2023-01-09T07:31:21.977Z,64
2023-01-09T07:32:22.132Z,64
2023-01-09T07:33:23.186Z,68
2023-01-09T07:34:24.381Z,76
2023-01-09T07:35:24.974Z,80
2023-01-09T07:36:25.206Z,88
2023-01-09T07:37:25.705Z,96
2023-01-09T07:38:25.350Z,104
2023-01-09T07:39:26.296Z,116
2023-01-09T07:40:27.225Z,124
2023-01-09T07:41:28.188Z,136
2023-01-09T07:42:28.217Z,140
2023-01-09T07:43:28.703Z,148
2023-01-09T07:44:29.636Z,152
2023-01-09T07:45:29.570Z,160
2023-01-09T07:46:30.710Z,168
2023-01-09T07:47:31.470Z,180
2023-01-09T07:48:31.694Z,192
2023-01-09T07:49:32.905Z,208
2023-01-09T07:50:32.455Z,216
2023-01-09T07:51:32.697Z,220
2023-01-09T07:52:32.351Z,224
2023-01-09T07:53:33.406Z,228
2023-01-09T07:54:34.044Z,228
2023-01-09T07:55:35.579Z,232
2023-01-09T07:56:36.213Z,240
2023-01-09T07:57:36.924Z,248
2023-01-09T07:58:37.597Z,268
2023-01-09T07:59:38.583Z,288
2023-01-09T08:00:39.907Z,304
2023-01-09T08:01:40.514Z,320
2023-01-09T08:02:41.169Z,340
2023-01-09T08:03:41.016Z,360
2023-01-09T08:04:41.966Z,380
2023-01-09T08:05:43.057Z,396
2023-01-09T08:06:43.262Z,416
2023-01-09T08:07:43.760Z,424
2023-01-09T08:08:43.426Z,436
2023-01-09T08:09:44.647Z,444
2023-01-09T08:10:45.854Z,448
2023-01-09T08:11:46.045Z,448
2023-01-09T08:12:47.155Z,444
2023-01-09T08:13:47.306Z,432
2023-01-09T08:14:48.228Z,424
2023-01-09T08:15:49.043Z,420
2023-01-09T08:16:49.086Z,416
2023-01-09T08:17:50.369Z,412
2023-01-09T08:18:49.993Z,412
2023-01-09T08:19:51.201Z,404
2023-01-09T08:20:51.468Z,396
2023-01-09T08:21:51.996Z,400
2023-01-09T08:22:52.495Z,408
2023-01-09T08:23:52.464Z,416
2023-01-09T08:24:53.460Z,428
2023-01-09T08:25:53.721Z,432
2023-01-09T08:26:54.670Z,444
2023-01-09T08:27:55.165Z,452
2023-01-09T08:28:55.696Z,456
2023-01-09T08:29:56.219Z,460
2023-01-09T08:30:56.721Z,464
2023-01-09T08:31:56.920Z,464
2023-01-09T08:32:58.233Z,452
2023-01-09T08:33:58.575Z,440
2023-01-09T08:34:59.291Z,436
2023-01-09T08:36:00.222Z,436
2023-01-09T08:37:00.555Z,432
2023-01-09T08:38:01.206Z,428
2023-01-09T08:39:01.732Z,416
2023-01-09T08:40:01.962Z,400
2023-01-09T08:41:02.466Z,384
2023-01-09T08:42:02.657Z,372
2023-01-09T08:43:02.641Z,360
2023-01-09T08:44:03.286Z,348
2023-01-09T08:45:02.916Z,340
2023-01-09T08:46:03.921Z,332
2023-01-09T08:47:05.227Z,328
2023-01-09T08:48:05.493Z,332
2023-01-09T08:49:05.713Z,336
2023-01-09T08:50:05.970Z,344
2023-01-09T08:51:06.622Z,356
2023-01-09T08:52:06.847Z,364
2023-01-09T08:53:06.847Z,376
2023-01-09T08:54:06.628Z,384
2023-01-09T08:55:07.890Z,400
2023-01-09T08:56:08.374Z,416
2023-01-09T08:57:08.591Z,428
2023-01-09T08:58:09.830Z,448
2023-01-09T08:59:10.288Z,468
2023-01-09T09:00:11.248Z,488
2023-01-09T09:01:11.877Z,508
2023-01-09T09:02:12.330Z,532
2023-01-09T09:03:13.848Z,552
2023-01-09T09:04:14.325Z,576
2023-01-09T09:05:15.048Z,592
2023-01-09T09:06:15.341Z,600
2023-01-09T09:07:16.011Z,596
2023-01-09T09:08:16.572Z,584
2023-01-09T09:09:16.246Z,580
2023-01-09T09:10:16.928Z,576
2023-01-09T09:11:18.000Z,576
2023-01-09T09:12:19.552Z,572
2023-01-09T09:13:19.832Z,576
2023-01-09T09:14:20.478Z,584
2023-01-09T09:15:20.597Z,600
2023-01-09T09:16:21.469Z,628
2023-01-09T09:17:20.390Z,668
2023-01-09T09:18:21.332Z,704
2023-01-09T09:19:21.863Z,720
2023-01-09T09:20:22.077Z,716
2023-01-09T09:21:23.088Z,692
2023-01-09T09:22:23.459Z,660
2023-01-09T09:23:24.427Z,628
2023-01-09T09:24:24.579Z,604
2023-01-09T09:25:25.281Z,580
2023-01-09T09:26:26.472Z,568
2023-01-09T09:27:26.963Z,568
2023-01-09T09:28:26.621Z,576
2023-01-09T09:29:27.885Z,592
2023-01-09T09:30:28.432Z,600
2023-01-09T09:31:28.939Z,600
2023-01-09T09:32:29.254Z,604
2023-01-09T09:33:30.586Z,612
2023-01-09T09:34:31.083Z,632
2023-01-09T09:35:31.047Z,664
2023-01-09T09:36:32.422Z,692
2023-01-09T09:37:32.532Z,716
2023-01-09T09:38:33.041Z,720
2023-01-09T09:39:33.300Z,724
2023-01-09T09:40:34.709Z,728
2023-01-09T09:41:34.991Z,736
2023-01-09T09:42:35.210Z,740
2023-01-09T09:43:35.132Z,740
2023-01-09T09:44:35.536Z,724
2023-01-09T09:45:36.813Z,704
2023-01-09T09:46:37.638Z,680
2023-01-09T09:47:37.945Z,672
2023-01-09T09:48:38.581Z,668
2023-01-09T09:49:37.942Z,676
2023-01-09T09:50:38.902Z,688
2023-01-09T09:51:40.283Z,696
2023-01-09T09:52:40.491Z,696
2023-01-09T09:53:40.433Z,696
2023-01-09T09:54:41.086Z,692
2023-01-09T09:55:41.348Z,700
2023-01-09T09:56:41.842Z,724
2023-01-09T09:57:41.469Z,752
2023-01-09T09:58:42.719Z,788
2023-01-09T09:59:43.977Z,824
2023-01-09T10:00:43.889Z,864
2023-01-09T10:01:44.818Z,908
2023-01-09T10:02:45.204Z,948
2023-01-09T10:03:46.853Z,1008
2023-01-09T10:04:46.607Z,1056
2023-01-09T10:05:47.144Z,1144
2023-01-09T10:06:47.919Z,1264
2023-01-09T10:07:51.614Z,1372
2023-01-09T10:08:49.168Z,1576
2023-01-09T10:09:50.380Z,1740
2023-01-09T10:10:50.611Z,1732
2023-01-09T10:11:50.886Z,1892
2023-01-09T10:12:51.528Z,2004
2023-01-09T10:13:52.739Z,1904
2023-01-09T10:14:53.399Z,1792
2023-01-09T10:15:53.622Z,2216
2023-01-09T10:16:54.699Z,1856
2023-01-09T10:17:54.919Z,2664
2023-01-09T10:18:55.533Z,1748
2023-01-09T10:19:55.229Z,1656
2023-01-09T10:20:56.259Z,1356
2023-01-09T10:21:57.228Z,1204
2023-01-09T10:22:57.723Z,1164
2023-01-09T10:23:57.365Z,1096
2023-01-09T10:24:58.397Z,1084
2023-01-09T10:25:59.378Z,1088
2023-01-09T10:26:59.325Z,1088
2023-01-09T10:28:00.557Z,1088
2023-01-09T10:29:00.219Z,1084
2023-01-09T10:30:01.803Z,1080
2023-01-09T10:31:02.404Z,1072
2023-01-09T10:32:03.089Z,1072
2023-01-09T10:33:04.294Z,1080
2023-01-09T10:34:04.549Z,1096
2023-01-09T10:35:05.040Z,1112
2023-01-09T10:36:06.306Z,1120
2023-01-09T10:37:06.976Z,1120
2023-01-09T10:38:07.526Z,1112
2023-01-09T10:39:07.753Z,1112
2023-01-09T10:40:08.980Z,1104
2023-01-09T10:41:13.147Z,1080
2023-01-09T10:42:09.751Z,1060
2023-01-09T10:43:10.258Z,1048
2023-01-09T10:44:10.808Z,1052
2023-01-09T10:45:10.834Z,1044
2023-01-09T10:46:12.270Z,1036
2023-01-09T10:47:12.471Z,1020
2023-01-09T10:48:12.416Z,1028
2023-01-09T10:49:13.684Z,1020
2023-01-09T10:50:13.606Z,996
2023-01-09T10:51:14.571Z,944
2023-01-09T10:52:15.794Z,892
2023-01-09T10:53:14.807Z,848
2023-01-09T10:54:15.458Z,816
2023-01-09T10:55:15.797Z,816
2023-01-09T10:56:16.756Z,828
2023-01-09T10:57:16.998Z,840
2023-01-09T10:58:17.418Z,852
2023-01-09T10:59:18.098Z,868
2023-01-09T11:00:20.550Z,884
2023-01-09T11:01:20.475Z,884
2023-01-09T11:02:20.986Z,876
2023-01-09T11:03:21.441Z,880
2023-01-09T11:04:21.535Z,880
2023-01-09T11:05:21.859Z,880
2023-01-09T11:06:23.174Z,884
2023-01-09T11:07:23.773Z,868
2023-01-09T11:08:23.726Z,848
2023-01-09T11:09:23.951Z,816
2023-01-09T11:10:24.247Z,800
2023-01-09T11:11:24.483Z,800
2023-01-09T11:12:25.719Z,812
2023-01-09T11:13:25.414Z,796
2023-01-09T11:14:26.627Z,768
2023-01-09T11:15:27.054Z,732
2023-01-09T11:16:27.936Z,700
2023-01-09T11:17:28.303Z,680
2023-01-09T11:18:29.254Z,672
2023-01-09T11:19:29.205Z,660
2023-01-09T11:20:30.538Z,652
2023-01-09T11:21:30.790Z,648
2023-01-09T11:22:31.015Z,640
2023-01-09T11:23:31.956Z,636
2023-01-09T11:24:32.604Z,636
2023-01-09T11:25:33.343Z,648
2023-01-09T11:26:34.887Z,656
2023-01-09T11:27:35.132Z,664
2023-01-09T11:28:35.803Z,664
2023-01-09T11:29:37.408Z,672
2023-01-09T11:30:37.685Z,680
2023-01-09T11:31:38.423Z,692
2023-01-09T11:32:38.165Z,708
2023-01-09T11:33:38.553Z,720
2023-01-09T11:34:39.520Z,744
2023-01-09T11:35:40.990Z,768
2023-01-09T11:36:41.594Z,772
2023-01-09T11:37:41.241Z,768
2023-01-09T11:38:40.872Z,764
2023-01-09T11:39:41.848Z,760
2023-01-09T11:40:42.106Z,764
2023-01-09T11:41:42.082Z,776
2023-01-09T11:42:43.355Z,800
2023-01-09T11:43:44.610Z,816
2023-01-09T11:44:44.587Z,832
2023-01-09T11:46:00.439Z,848
2023-01-09T11:46:46.558Z,872
2023-01-09T11:47:47.116Z,904
2023-01-09T11:48:47.615Z,948
2023-01-09T11:49:49.853Z,1000
2023-01-09T11:50:48.299Z,1040
2023-01-09T11:51:48.521Z,1064
2023-01-09T11:52:49.796Z,1064
2023-01-09T11:53:50.733Z,1056
2023-01-09T11:54:51.666Z,1060
2023-01-09T11:55:54.979Z,1020
2023-01-09T11:56:56.280Z,1000
2023-01-09T11:57:56.788Z,1024
2023-01-09T11:58:57.313Z,1024
2023-01-09T11:59:57.514Z,1048
2023-01-09T12:00:57.766Z,1040
2023-01-09T12:01:58.569Z,1048
2023-01-09T12:02:59.643Z,1068
2023-01-09T12:03:59.984Z,1068
2023-01-09T12:05:00.977Z,1092
2023-01-09T12:06:00.544Z,1108
2023-01-09T12:07:01.473Z,1084
2023-01-09T12:08:02.441Z,1016
2023-01-09T12:09:03.120Z,968
2023-01-09T12:10:04.045Z,944
2023-01-09T12:11:04.722Z,920
2023-01-09T12:12:05.692Z,892
2023-01-09T12:13:06.950Z,872
2023-01-09T12:14:07.989Z,844
2023-01-09T12:15:10.077Z,808
2023-01-09T12:16:10.142Z,764
2023-01-09T12:17:10.291Z,744
2023-01-09T12:18:11.841Z,764
2023-01-09T12:19:12.824Z,784
2023-01-09T12:20:13.547Z,828
2023-01-09T12:21:13.793Z,856
2023-01-09T12:22:14.290Z,884
2023-01-09T12:23:14.631Z,888
2023-01-09T12:24:14.959Z,884
2023-01-09T12:25:15.551Z,856
2023-01-09T12:26:15.388Z,784
2023-01-09T12:27:17.245Z,696
2023-01-09T12:28:16.290Z,620
2023-01-09T12:29:17.496Z,576
2023-01-09T12:30:17.724Z,544
2023-01-09T12:31:18.466Z,532
2023-01-09T12:32:19.195Z,548
2023-01-09T12:33:19.439Z,560
2023-01-09T12:34:19.107Z,564
2023-01-09T12:35:20.395Z,584
2023-01-09T12:36:20.569Z,592
2023-01-09T12:37:23.203Z,568
2023-01-09T12:38:22.141Z,560
2023-01-09T12:39:22.090Z,544
2023-01-09T12:40:23.195Z,528
2023-01-09T12:41:23.695Z,516
2023-01-09T12:42:23.928Z,508
2023-01-09T12:43:23.833Z,504
2023-01-09T12:44:41.868Z,512
2023-01-09T12:45:25.940Z,528
2023-01-09T12:46:26.154Z,540
2023-01-09T12:47:27.082Z,548
2023-01-09T12:48:28.004Z,552
2023-01-09T12:49:28.300Z,564
2023-01-09T12:50:28.887Z,576
2023-01-09T12:51:29.283Z,576
2023-01-09T12:52:30.486Z,588
2023-01-09T12:53:31.060Z,580
2023-01-09T12:54:31.391Z,564
2023-01-09T12:55:32.416Z,536
2023-01-09T12:56:33.025Z,512
2023-01-09T12:57:33.349Z,508
2023-01-09T12:58:33.334Z,504
2023-01-09T12:59:33.465Z,504
2023-01-09T13:00:34.976Z,496
2023-01-09T13:01:35.529Z,496
2023-01-09T13:02:35.997Z,488
2023-01-09T13:03:36.261Z,476
2023-01-09T13:04:36.499Z,480
2023-01-09T13:05:36.754Z,492
2023-01-09T13:06:36.807Z,496
2023-01-09T13:07:38.345Z,500
2023-01-09T13:08:38.382Z,520
2023-01-09T13:09:39.617Z,536
2023-01-09T13:10:39.376Z,532
2023-01-09T13:11:40.120Z,528
2023-01-09T13:12:40.100Z,528
2023-01-09T13:13:40.589Z,560
2023-01-09T13:14:40.260Z,568
2023-01-09T13:15:41.608Z,556
2023-01-09T13:16:43.006Z,544
2023-01-09T13:17:42.782Z,520
2023-01-09T13:18:44.059Z,496
2023-01-09T13:19:45.170Z,468
2023-01-09T13:20:45.437Z,452
2023-01-09T13:21:45.400Z,452
2023-01-09T13:22:45.630Z,472
2023-01-09T13:23:46.720Z,496
2023-01-09T13:24:46.400Z,520
2023-01-09T13:25:47.326Z,548
2023-01-09T13:26:48.060Z,592
2023-01-09T13:27:49.357Z,604
2023-01-09T13:28:49.351Z,612
2023-01-09T13:29:49.986Z,624
2023-01-09T13:30:50.208Z,632
2023-01-09T13:31:51.609Z,644
2023-01-09T13:32:51.346Z,632
2023-01-09T13:33:52.276Z,616
2023-01-09T13:34:52.487Z,624
2023-01-09T13:35:53.430Z,624
2023-01-09T13:36:54.291Z,620
2023-01-09T13:37:54.642Z,592
2023-01-09T13:38:55.944Z,552
2023-01-09T13:39:55.603Z,516
2023-01-09T13:40:57.120Z,480
2023-01-09T13:41:57.338Z,448
2023-01-09T13:42:58.070Z,420
2023-01-09T13:43:59.590Z,400
2023-01-09T13:44:59.542Z,396
2023-01-09T13:46:01.324Z,388
2023-01-09T13:47:01.595Z,388
2023-01-09T13:48:01.821Z,396
2023-01-09T13:49:03.043Z,408
2023-01-09T13:50:03.268Z,412
2023-01-09T13:51:04.558Z,404
2023-01-09T13:52:04.877Z,388
2023-01-09T13:53:05.124Z,380
2023-01-09T13:54:06.373Z,364
2023-01-09T13:55:06.446Z,356
2023-01-09T13:56:06.455Z,340
2023-01-09T13:57:06.613Z,316
2023-01-09T13:58:07.887Z,296
2023-01-09T13:59:08.862Z,272
2023-01-09T14:00:09.133Z,256
2023-01-09T14:01:10.678Z,248
2023-01-09T14:02:10.518Z,244
2023-01-09T14:03:11.089Z,240
2023-01-09T14:04:12.400Z,232
2023-01-09T14:05:11.821Z,220
2023-01-09T14:06:12.062Z,212
2023-01-09T14:07:12.571Z,208
2023-01-09T14:08:14.086Z,212
2023-01-09T14:09:14.080Z,216
2023-01-09T14:10:15.801Z,224
2023-01-09T14:11:15.795Z,236
2023-01-09T14:12:17.325Z,240
2023-01-09T14:13:17.719Z,232
2023-01-09T14:14:17.364Z,220
2023-01-09T14:15:18.297Z,204
2023-01-09T14:16:18.531Z,192
2023-01-09T14:17:19.179Z,180
2023-01-09T14:18:19.414Z,164
2023-01-09T14:19:19.994Z,160
2023-01-09T14:20:20.216Z,148
2023-01-09T14:21:20.213Z,136